PWSweather.com
Personal Weather Stations
Station Observations
PEISSEN1
PeissenbergDE

PeissenbergDE

Lat: 47.791845, Lon: 11.064121

Elevation: 1929

Station Type: Davis Vantage Pro 2

wetter-peissenberg.de

High Low Average
Temperature 59.7°F15.4°C 50.5°F10.3°C 54.4°F12.4°C
Dew Point 52.9°F11.6°C 47.7°F8.7°C 50.8°F10.4°C
Winds 2.7 mph 4.3 kmh Calm Calm Calm WNWCalm WNW
Wind Gusts 9.0 mph14.5 kmh -- 1.0 mph1.6 kmh
Humidity 95% 71% 88%
Pressure 30.11 in1019.6 mb 30.05 in1017.6 mb -
Precipitation 0.34 in8.6 mm - -
Hour Temp Dew Point Humidity Winds Wind Gusts Pressure Precip Precip Rate Daily Precip Total
12:00 AM 53.1°F11.7°C 51.4°F10.8°C 94% Calm Calm -- 30.11 in1019.6 mb 0.00 in0.0 mm 0.00 in0.0 mm 0.33 in8.4 mm
12:10 AM 53.1°F11.7°C 51.4°F10.8°C 94% Calm Calm -- 30.11 in1019.6 mb 0.00 in0.0 mm 0.00 in0.0 mm 0.33 in8.4 mm
12:20 AM 53.1°F11.7°C 51.4°F10.8°C 94% Calm Calm -- 30.11 in1019.6 mb 0.00 in0.0 mm 0.00 in0.0 mm 0.34 in8.6 mm
02:00 AM 52.5°F11.4°C 50.8°F10.4°C 94% Calm Calm -- 30.09 in1019.0 mb 0.00 in0.0 mm 0.00 in0.0 mm 0.02 in0.5 mm
02:10 AM 52.5°F11.4°C 50.8°F10.4°C 94% Calm Calm -- 30.09 in1019.0 mb 0.00 in0.0 mm 0.00 in0.0 mm 0.02 in0.5 mm
02:20 AM 52.5°F11.4°C 50.8°F10.4°C 94% Calm Calm -- 30.09 in1019.0 mb 0.00 in0.0 mm 0.00 in0.0 mm 0.02 in0.5 mm
04:00 AM 52.3°F11.3°C 51.0°F10.6°C 95% Calm Calm -- 30.09 in1019.0 mb 0.00 in0.0 mm 0.00 in0.0 mm 0.04 in1.0 mm
04:10 AM 52.3°F11.3°C 51.0°F10.6°C 95% Calm Calm -- 30.09 in1019.0 mb 0.00 in0.0 mm 0.00 in0.0 mm 0.04 in1.0 mm
04:20 AM 52.2°F11.2°C 50.8°F10.4°C 95% Calm Calm -- 30.09 in1019.0 mb 0.00 in0.0 mm 0.00 in0.0 mm 0.04 in1.0 mm
06:00 AM 51.6°F10.9°C 50.2°F10.1°C 95% Calm Calm -- 30.09 in1019.0 mb 0.00 in0.0 mm 0.00 in0.0 mm 0.06 in1.5 mm
06:10 AM 51.6°F10.9°C 50.2°F10.1°C 95% Calm Calm -- 30.09 in1019.0 mb 0.00 in0.0 mm 0.00 in0.0 mm 0.06 in1.5 mm
06:20 AM 51.6°F10.9°C 50.2°F10.1°C 95% Calm Calm -- 30.09 in1019.0 mb 0.00 in0.0 mm 0.00 in0.0 mm 0.06 in1.5 mm
08:00 AM 52.0°F11.1°C 50.6°F10.3°C 95% 0.2 mph N0.3 kmh N 2.0 mph3.2 kmh 30.10 in1019.3 mb 0.00 in0.0 mm 0.00 in0.0 mm 0.10 in2.5 mm
08:10 AM 52.2°F11.2°C 50.8°F10.4°C 95% 0.4 mph WSW0.6 kmh WSW 3.0 mph4.8 kmh 30.10 in1019.3 mb 0.00 in0.0 mm 0.00 in0.0 mm 0.10 in2.5 mm
08:20 AM 52.5°F11.4°C 51.1°F10.6°C 95% 0.9 mph SW1.4 kmh SW 3.0 mph4.8 kmh 30.11 in1019.6 mb 0.00 in0.0 mm 0.00 in0.0 mm 0.10 in2.5 mm
10:00 AM 53.6°F12.0°C 51.9°F11.1°C 94% 2.4 mph WSW3.9 kmh WSW 9.0 mph14.5 kmh 30.11 in1019.6 mb 0.01 in0.3 mm 0.02 in0.5 mm 0.16 in4.1 mm
10:10 AM 53.4°F11.9°C 51.7°F10.9°C 94% 0.5 mph W0.8 kmh W 3.0 mph4.8 kmh 30.11 in1019.6 mb 0.00 in0.0 mm 0.00 in0.0 mm 0.16 in4.1 mm
10:20 AM 53.6°F12.0°C 51.9°F11.1°C 94% 0.1 mph WSW0.2 kmh WSW 2.0 mph3.2 kmh 30.11 in1019.6 mb 0.00 in0.0 mm 0.00 in0.0 mm 0.17 in4.3 mm
12:00 PM 56.7°F13.7°C 52.2°F11.2°C 85% 0.1 mph WSW0.2 kmh WSW 2.0 mph3.2 kmh 30.10 in1019.3 mb 0.00 in0.0 mm 0.00 in0.0 mm 0.17 in4.3 mm
12:10 PM 56.8°F13.8°C 52.4°F11.3°C 85% 0.4 mph N0.6 kmh N 2.0 mph3.2 kmh 30.10 in1019.3 mb 0.00 in0.0 mm 0.00 in0.0 mm 0.17 in4.3 mm
12:20 PM 57.0°F13.9°C 52.9°F11.6°C 86% Calm Calm -- 30.10 in1019.3 mb 0.00 in0.0 mm 0.00 in0.0 mm 0.17 in4.3 mm
02:00 PM 58.3°F14.6°C 51.8°F11.0°C 79% 0.2 mph N0.3 kmh N 2.0 mph3.2 kmh 30.08 in1018.6 mb 0.00 in0.0 mm 0.00 in0.0 mm 0.17 in4.3 mm
02:10 PM 58.3°F14.6°C 51.8°F11.0°C 79% 1.9 mph S3.1 kmh S 3.0 mph4.8 kmh 30.08 in1018.6 mb 0.00 in0.0 mm 0.00 in0.0 mm 0.17 in4.3 mm
02:20 PM 58.3°F14.6°C 51.1°F10.6°C 77% 0.7 mph N1.1 kmh N 2.0 mph3.2 kmh 30.08 in1018.6 mb 0.00 in0.0 mm 0.00 in0.0 mm 0.17 in4.3 mm
04:00 PM 58.6°F14.8°C 50.7°F10.4°C 75% 2.7 mph N4.3 kmh N 5.0 mph8.0 kmh 30.06 in1017.9 mb 0.00 in0.0 mm 0.00 in0.0 mm 0.17 in4.3 mm
04:10 PM 59.5°F15.3°C 50.1°F10.1°C 71% 0.9 mph S1.4 kmh S 4.0 mph6.4 kmh 30.07 in1018.3 mb 0.00 in0.0 mm 0.00 in0.0 mm 0.17 in4.3 mm
04:20 PM 59.7°F15.4°C 50.7°F10.4°C 72% Calm Calm -- 30.07 in1018.3 mb 0.00 in0.0 mm 0.00 in0.0 mm 0.17 in4.3 mm
06:00 PM 59.4°F15.2°C 51.8°F11.0°C 76% Calm Calm -- 30.06 in1017.9 mb 0.00 in0.0 mm 0.00 in0.0 mm 0.17 in4.3 mm
06:10 PM 59.0°F15.0°C 51.8°F11.0°C 77% Calm Calm -- 30.07 in1018.3 mb 0.00 in0.0 mm 0.00 in0.0 mm 0.17 in4.3 mm
06:20 PM 58.3°F14.6°C 51.1°F10.6°C 77% Calm Calm -- 30.06 in1017.9 mb 0.00 in0.0 mm 0.00 in0.0 mm 0.17 in4.3 mm
08:00 PM 53.4°F11.9°C 49.6°F9.8°C 87% Calm Calm -- 30.07 in1018.3 mb 0.00 in0.0 mm 0.00 in0.0 mm 0.17 in4.3 mm
08:10 PM 53.2°F11.8°C 49.5°F9.7°C 87% Calm Calm -- 30.07 in1018.3 mb 0.00 in0.0 mm 0.00 in0.0 mm 0.17 in4.3 mm
08:20 PM 52.9°F11.6°C 49.4°F9.7°C 88% Calm Calm -- 30.07 in1018.3 mb 0.00 in0.0 mm 0.00 in0.0 mm 0.17 in4.3 mm
10:00 PM 51.1°F10.6°C 48.3°F9.1°C 90% Calm Calm -- 30.06 in1017.9 mb 0.00 in0.0 mm 0.00 in0.0 mm 0.17 in4.3 mm
10:10 PM 50.7°F10.4°C 47.9°F8.8°C 90% Calm Calm -- 30.05 in1017.6 mb 0.00 in0.0 mm 0.00 in0.0 mm 0.17 in4.3 mm
10:20 PM 50.5°F10.3°C 47.7°F8.7°C 90% Calm Calm -- 30.06 in1017.9 mb 0.00 in0.0 mm 0.00 in0.0 mm 0.17 in4.3 mm